Oran, Argentina
Current Conditions -  °F | °C
As of 7:00 PM on Sunday 25 Jan 2015 (Local Time) from SASJ Reporting Station
Broken Clouds Broken Clouds  
Wind Chill: 84°   Ceiling: 20000
Heat Index: 84°   Visibility: 6mi
Dew Point: 59°   Wind: 3mph
Humidity: 42%   Direction: 50°NE
Pressure: 29.83"   Gusts: NA
Location:  23.14°S, 64.32°W
Report Text: SASJ 252200Z 05003KT 9999 FEW020 BKN20029/15 Q1010
Loading
Personal Weather Stations






























Interactive Weather Map New forecast layout! Learn more

10-Day Weather Forecast

Advertisements
Track Severe Weather on mobile